createdAt,value
2019-03-29T00:00:49.373Z,99.60
2019-03-29T00:05:56.717Z,99.60
2019-03-29T00:11:03.652Z,99.60
2019-03-29T00:16:11.807Z,99.60
2019-03-29T00:21:19.689Z,99.60
2019-03-29T00:26:54.712Z,99.60
2019-03-29T00:32:44.162Z,99.60
2019-03-29T00:37:53.851Z,99.60
2019-03-29T00:43:00.114Z,99.60
2019-03-29T00:48:06.742Z,99.60
2019-03-29T00:53:13.280Z,99.60
2019-03-29T00:58:21.307Z,99.60
2019-03-29T01:03:29.162Z,99.60
2019-03-29T01:08:36.173Z,99.60
2019-03-29T01:13:44.032Z,99.60
2019-03-29T01:18:52.209Z,99.60
2019-03-29T01:23:59.883Z,99.60
2019-03-29T01:29:07.772Z,99.60
2019-03-29T01:34:17.005Z,99.60
2019-03-29T01:39:25.155Z,99.60
2019-03-29T01:44:33.174Z,99.60
2019-03-29T01:49:41.990Z,99.60
2019-03-29T01:54:48.811Z,99.60
2019-03-29T01:59:57.188Z,99.60
2019-03-29T02:05:05.473Z,99.60
2019-03-29T02:10:12.512Z,99.60
2019-03-29T02:15:19.119Z,99.60
2019-03-29T02:20:25.836Z,99.60
2019-03-29T02:25:33.156Z,99.60
2019-03-29T02:30:40.965Z,99.60
2019-03-29T02:35:47.309Z,99.60
2019-03-29T02:40:54.336Z,99.60
2019-03-29T02:46:03.876Z,99.60
2019-03-29T02:51:11.350Z,99.60
2019-03-29T02:56:18.881Z,99.60
2019-03-29T03:01:26.249Z,99.60
2019-03-29T03:06:33.427Z,99.60
2019-03-29T03:11:40.947Z,99.60
2019-03-29T03:16:48.802Z,99.60
2019-03-29T03:21:57.049Z,99.60
2019-03-29T03:27:04.622Z,99.60
2019-03-29T03:32:12.210Z,99.60
2019-03-29T03:37:19.707Z,99.60
2019-03-29T03:42:28.387Z,99.60
2019-03-29T03:47:34.946Z,99.60
2019-03-29T03:52:42.003Z,99.60
2019-03-29T03:57:50.027Z,99.60
2019-03-29T04:02:57.553Z,99.60
2019-03-29T04:08:05.679Z,99.60
2019-03-29T04:13:14.680Z,99.60
2019-03-29T04:18:22.398Z,99.60
2019-03-29T04:23:33.423Z,99.60
2019-03-29T04:28:42.613Z,99.60
2019-03-29T04:34:42.868Z,99.60
2019-03-29T04:40:06.257Z,99.60
2019-03-29T04:45:00.128Z,99.60
2019-03-29T04:50:12.623Z,99.60
2019-03-29T04:55:24.787Z,99.60
2019-03-29T05:01:05.068Z,99.60
2019-03-29T05:06:37.439Z,99.60
2019-03-29T05:12:41.894Z,99.60
2019-03-29T05:17:51.442Z,99.60
2019-03-29T05:22:59.168Z,99.60
2019-03-29T05:28:30.119Z,99.60
2019-03-29T05:33:39.276Z,99.60
2019-03-29T05:45:37.464Z,99.60
2019-03-29T05:50:45.515Z,99.60
2019-03-29T05:56:20.039Z,99.60
2019-03-29T06:02:13.658Z,99.60
2019-03-29T06:07:21.799Z,99.60
2019-03-29T06:12:29.589Z,99.60
2019-03-29T06:17:48.401Z,99.60
2019-03-29T06:22:54.790Z,99.60
2019-03-29T06:28:26.302Z,99.60
2019-03-29T06:33:34.002Z,99.60
2019-03-29T06:38:42.962Z,99.60
2019-03-29T06:43:49.667Z,99.60
2019-03-29T06:48:55.998Z,99.60
2019-03-29T06:54:03.189Z,99.60
2019-03-29T06:59:10.150Z,99.60
2019-03-29T07:04:35.596Z,99.60
2019-03-29T07:09:43.664Z,99.60
2019-03-29T07:14:51.138Z,99.60
2019-03-29T07:19:59.412Z,99.60
2019-03-29T07:25:06.696Z,99.60
2019-03-29T07:30:13.604Z,99.60
2019-03-29T07:35:20.255Z,99.60
2019-03-29T07:40:26.991Z,99.60
2019-03-29T07:45:33.334Z,99.60
2019-03-29T07:50:40.630Z,99.60
2019-03-29T07:55:47.989Z,99.60
2019-03-29T08:01:01.171Z,99.60
2019-03-29T08:06:07.767Z,99.60
2019-03-29T08:11:26.232Z,99.60
2019-03-29T08:16:37.063Z,99.60
2019-03-29T08:21:44.065Z,99.60
2019-03-29T08:26:52.831Z,99.60
2019-03-29T08:32:02.687Z,99.60
2019-03-29T08:37:10.260Z,99.60
2019-03-29T08:42:18.818Z,99.60
2019-03-29T08:47:25.891Z,99.60
2019-03-29T08:52:34.026Z,99.60
2019-03-29T08:58:01.437Z,99.60
2019-03-29T09:03:10.517Z,99.60
2019-03-29T09:08:19.535Z,99.60
2019-03-29T09:13:26.280Z,99.60
2019-03-29T09:18:33.806Z,99.60
2019-03-29T09:23:41.906Z,99.20
2019-03-29T09:28:48.635Z,99.20
2019-03-29T09:34:04.053Z,99.20
2019-03-29T09:39:13.049Z,98.90
2019-03-29T09:44:19.664Z,99.10
2019-03-29T09:49:28.520Z,97.80
2019-03-29T09:54:36.167Z,97.10
2019-03-29T09:59:45.054Z,97.20
2019-03-29T10:04:53.334Z,97.10
2019-03-29T10:10:00.753Z,96.30
2019-03-29T10:15:07.928Z,95.10
2019-03-29T10:20:15.140Z,94.70
2019-03-29T10:25:21.798Z,93.70
2019-03-29T10:30:46.533Z,93.80
2019-03-29T10:35:57.699Z,94.50
2019-03-29T10:41:08.014Z,92.60
2019-03-29T10:46:15.900Z,92.20
2019-03-29T10:51:30.517Z,91.00
2019-03-29T10:56:37.955Z,91.20
2019-03-29T11:01:49.431Z,90.20
2019-03-29T11:06:59.352Z,88.60
2019-03-29T11:12:48.278Z,88.60
2019-03-29T11:18:06.212Z,87.10
2019-03-29T11:23:14.013Z,82.10
2019-03-29T11:28:21.378Z,78.60
2019-03-29T11:33:37.806Z,75.90
2019-03-29T11:38:46.035Z,72.20
2019-03-29T11:44:06.602Z,69.10
2019-03-29T11:49:23.461Z,69.20
2019-03-29T11:54:33.568Z,67.30
2019-03-29T11:59:46.266Z,66.70
2019-03-29T12:04:54.792Z,68.60
2019-03-29T12:10:09.465Z,67.60
2019-03-29T12:15:15.932Z,65.10
2019-03-29T12:20:22.836Z,63.90
2019-03-29T12:25:30.712Z,62.70
2019-03-29T12:30:38.148Z,62.40
2019-03-29T12:35:45.851Z,62.70
2019-03-29T12:40:56.264Z,61.50
2019-03-29T12:46:04.591Z,62.20
2019-03-29T12:51:12.464Z,61.30
2019-03-29T12:56:23.584Z,61.50
2019-03-29T13:01:39.790Z,63.90
2019-03-29T13:06:44.078Z,64.80
2019-03-29T13:11:55.501Z,67.50
2019-03-29T13:17:03.576Z,64.50
2019-03-29T13:22:12.621Z,66.40
2019-03-29T13:27:20.745Z,69.50
2019-03-29T13:32:29.252Z,69.70
2019-03-29T13:39:05.077Z,68.40
2019-03-29T13:45:09.023Z,68.10
2019-03-29T13:50:17.311Z,68.70
2019-03-29T13:55:25.698Z,67.10
2019-03-29T14:00:32.561Z,69.20
2019-03-29T14:05:41.019Z,69.60
2019-03-29T14:10:49.680Z,69.80
2019-03-29T14:15:56.501Z,69.10
2019-03-29T14:21:03.841Z,70.50
2019-03-29T14:26:18.757Z,69.90
2019-03-29T14:31:25.165Z,70.00
2019-03-29T14:36:31.835Z,69.30
2019-03-29T14:41:39.025Z,70.00
2019-03-29T14:46:45.720Z,67.20
2019-03-29T14:51:53.630Z,65.60
2019-03-29T14:57:01.997Z,65.20
2019-03-29T15:02:10.288Z,65.60
2019-03-29T15:07:18.850Z,65.80
2019-03-29T15:12:32.698Z,63.30
2019-03-29T15:17:39.967Z,65.90
2019-03-29T15:23:08.549Z,64.80
2019-03-29T15:28:17.609Z,62.50
2019-03-29T15:33:26.386Z,62.30
2019-03-29T15:38:33.259Z,59.70
2019-03-29T15:43:40.718Z,57.80
2019-03-29T15:49:05.425Z,57.10
2019-03-29T15:55:02.318Z,54.10
2019-03-29T16:07:07.904Z,54.80
2019-03-29T16:12:15.319Z,57.80
2019-03-29T16:17:25.425Z,61.70
2019-03-29T16:22:33.708Z,62.90
2019-03-29T16:27:40.830Z,64.60
2019-03-29T16:32:47.947Z,64.20
2019-03-29T16:37:57.370Z,60.70
2019-03-29T16:43:04.044Z,63.50
2019-03-29T16:48:10.540Z,67.90
2019-03-29T16:53:18.539Z,69.20
2019-03-29T16:58:26.363Z,70.90
2019-03-29T17:03:35.419Z,72.10
2019-03-29T17:08:43.783Z,74.30
2019-03-29T17:13:51.805Z,73.20
2019-03-29T17:19:00.372Z,74.90
2019-03-29T17:24:07.053Z,75.60
2019-03-29T17:29:13.990Z,75.60
2019-03-29T17:34:20.776Z,75.90
2019-03-29T17:39:27.498Z,77.70
2019-03-29T17:44:34.228Z,79.00
2019-03-29T17:49:40.758Z,79.70
2019-03-29T17:54:47.928Z,79.60
2019-03-29T17:59:54.314Z,79.50
2019-03-29T18:05:04.778Z,80.60
2019-03-29T18:10:11.522Z,81.10
2019-03-29T18:15:18.237Z,82.50
2019-03-29T18:20:25.167Z,84.10
2019-03-29T18:25:32.389Z,82.50
2019-03-29T18:30:43.934Z,82.60
2019-03-29T18:35:53.802Z,83.30
2019-03-29T18:41:01.621Z,80.20
2019-03-29T18:46:09.336Z,82.40
2019-03-29T18:51:17.376Z,81.90
2019-03-29T18:56:25.070Z,83.00
2019-03-29T19:01:34.275Z,84.00
2019-03-29T19:06:41.797Z,83.30
2019-03-29T19:11:48.665Z,82.00
2019-03-29T19:16:59.166Z,79.80
2019-03-29T19:22:04.847Z,82.00
2019-03-29T19:27:11.726Z,80.90
2019-03-29T19:32:19.072Z,80.60
2019-03-29T19:37:25.605Z,80.90
2019-03-29T19:42:33.703Z,82.80
2019-03-29T19:47:41.448Z,85.10
2019-03-29T19:53:03.672Z,85.60
2019-03-29T19:58:21.211Z,85.80
2019-03-29T20:03:29.791Z,86.80
2019-03-29T20:08:37.474Z,89.20
2019-03-29T20:13:45.405Z,89.70
2019-03-29T20:18:53.857Z,90.50
2019-03-29T20:24:01.641Z,91.70
2019-03-29T20:29:08.329Z,92.00
2019-03-29T20:34:17.045Z,91.60
2019-03-29T20:39:25.005Z,92.30
2019-03-29T20:44:33.200Z,93.40
2019-03-29T20:49:40.004Z,94.10
2019-03-29T20:54:49.644Z,93.80
2019-03-29T21:00:00.438Z,93.50
2019-03-29T21:05:10.915Z,93.70
2019-03-29T21:10:18.109Z,94.40
2019-03-29T21:15:27.379Z,94.90
2019-03-29T21:20:35.841Z,95.90
2019-03-29T21:25:43.819Z,96.60
2019-03-29T21:30:52.271Z,97.50
2019-03-29T21:35:59.614Z,98.10
2019-03-29T21:41:06.398Z,99.30
2019-03-29T21:46:13.143Z,97.80
2019-03-29T21:51:20.397Z,97.00
2019-03-29T21:56:27.707Z,98.40
2019-03-29T22:01:36.234Z,99.60
2019-03-29T22:06:52.964Z,99.60
2019-03-29T22:12:15.635Z,99.60
2019-03-29T22:17:24.232Z,99.60
2019-03-29T22:22:33.646Z,99.60
2019-03-29T22:27:41.789Z,99.60
2019-03-29T22:32:49.828Z,99.60
2019-03-29T22:37:58.651Z,99.60
2019-03-29T22:43:17.616Z,99.60
2019-03-29T22:48:25.511Z,99.60
2019-03-29T22:53:33.152Z,99.60
2019-03-29T22:58:39.631Z,99.60
2019-03-29T23:03:47.819Z,99.60
2019-03-29T23:08:54.799Z,99.60
2019-03-29T23:14:03.023Z,99.60
2019-03-29T23:19:11.538Z,99.60
2019-03-29T23:24:19.282Z,99.60
2019-03-29T23:29:25.628Z,99.60
2019-03-29T23:34:34.269Z,99.60
2019-03-29T23:39:42.588Z,99.60
2019-03-29T23:44:49.745Z,99.60
2019-03-29T23:50:03.029Z,99.60
2019-03-29T23:55:10.859Z,99.60
